Terminal Aerodrome Forecast
Issued by NWS Jackson, MS

Home | Current Version | Previous Version | Text Only | Print | Product List | Glossary On
Versions: 1 2 3 4 5 6 7 8 9 10 11 12 13
546
FTUS44 KMEG 281131
TAFTUP
TAF
KTUP 281131Z 2812/2912 07008KT 6SM -SHRA VCTS SCT015 OVC030CB
     FM281400 23010G16KT P6SM VCSH BKN015 BKN030
     FM281800 25010G16KT P6SM BKN030
     FM282100 26010KT P6SM VCTS BKN050CB
     FM290000 26005KT P6SM VCTS BKN050CB
     FM290600 20003KT P6SM VCTS BKN025CB=

USA.gov is the U.S. government's official web portal to all federal, state and local government web resources and services.